Time;durP1;ratioP1;P1;durP2;ratioP2;P2;SDS_P1;SDS_P2;PMS_P1;PMS_P2;Temp;Humidity;BMP_temperature;BMP_pressure;BME280_temperature;BME280_humidity;BME280_pressure;Samples;Min_cycle;Max_cycle;Signal;HPM_P1;HPM_P2
2022/08/15 00:02:23;;;;;;;;;;;;;;;;;;5032325;28;19968;-73
2022/08/15 00:05:01;;;;;;;;;;;;;;;;;;5032990;28;19964;-76
2022/08/15 00:07:27;;;;;;;;;;;;;;;;;;5027451;28;19961;-72
2022/08/15 00:10:09;;;;;;;;;;;;;;;;;;5027534;28;19964;-72
2022/08/15 00:13:00;;;;;;;;;;;;;;;;;;5019553;28;20319;-72
2022/08/15 00:15:32;;;;;;;;;;;;;;;;;;5017762;28;20363;-72
2022/08/15 00:17:59;;;;;;;;;;;;;;;;;;5027688;28;20346;-72
2022/08/15 00:20:25;;;;;;;;;;;;;;;;;;5030587;28;19960;-72
2022/08/15 00:22:58;;;;;;;;;;;;;;;;;;5017052;28;19921;-72
2022/08/15 00:25:25;;;;;;;;;;;;;;;;;;5024751;28;19925;-72
2022/08/15 00:27:52;;;;;;;;;;;;;;;;;;5023929;28;19925;-73
2022/08/15 00:30:20;;;;;;;;;;;;;;;;;;5002021;28;20383;-73
2022/08/15 00:32:50;;;;;;;;;;;;;;;;;;5026084;28;19948;-71
2022/08/15 00:35:36;;;;;;;;;;;;;;;;;;5017328;28;19928;-72
2022/08/15 00:38:03;;;;;;;;;;;;;;;;;;5025470;28;19922;-71
2022/08/15 00:43:27;;;;;;;;;;;;;;;;;;4981986;28;19932;-74
2022/08/15 00:45:56;;;;;;;;;;;;;;;;;;4957420;28;19921;-73
2022/08/15 00:51:07;;;;;;;;;;;;;;;;;;4981352;28;19992;-75
2022/08/15 00:53:34;;;;;;;;;;;;;;;;;;4972225;28;20486;-74
2022/08/15 00:56:00;;;;;;;;;;;;;;;;;;4980519;28;19922;-73
2022/08/15 00:58:27;;;;;;;;;;;;;;;;;;4982085;28;19952;-72
2022/08/15 01:01:01;;;;;;;;;;;;;;;;;;4980857;28;20061;-71
2022/08/15 01:03:29;;;;;;;;;;;;;;;;;;4964217;28;19972;-72
2022/08/15 01:05:56;;;;;;;;;;;;;;;;;;4984398;28;20323;-72
2022/08/15 01:08:24;;;;;;;;;;;;;;;;;;4990882;28;19976;-76
2022/08/15 01:10:55;;;;;;;;;;;;;;;;;;4985037;28;19969;-75
2022/08/15 01:13:28;;;;;;;;;;;;;;;;;;4986257;28;19925;-76
2022/08/15 01:16:14;;;;;;;;;;;;;;;;;;4987705;28;19928;-75
2022/08/15 01:18:41;;;;;;;;;;;;;;;;;;4987026;28;20016;-76
2022/08/15 01:21:08;;;;;;;;;;;;;;;;;;5005161;28;19929;-75
2022/08/15 01:23:35;;;;;;;;;;;;;;;;;;5047283;28;20020;-75
2022/08/15 01:26:06;;;;;;;;;;;;;;;;;;5018617;28;20341;-76
2022/08/15 01:28:55;;;;;;;;;;;;;;;;;;5047698;28;20575;-76
2022/08/15 01:31:22;;;;;;;;;;;;;;;;;;5031123;28;20441;-75
2022/08/15 01:33:48;;;;;;;;;;;;;;;;;;5042065;28;20292;-75
2022/08/15 01:36:15;;;;;;;;;;;;;;;;;;5035803;28;20021;-75
2022/08/15 01:38:58;;;;;;;;;;;;;;;;;;5002357;28;19928;-75
2022/08/15 01:41:37;;;;;;;;;;;;;;;;;;5028249;28;19952;-75
2022/08/15 01:44:08;;;;;;;;;;;;;;;;;;5030943;28;19975;-75
2022/08/15 01:46:51;;;;;;;;;;;;;;;;;;5019218;28;20008;-75
2022/08/15 01:49:18;;;;;;;;;;;;;;;;;;5025200;28;19968;-75
2022/08/15 01:51:44;;;;;;;;;;;;;;;;;;5046772;28;19921;-75
2022/08/15 01:54:10;;;;;;;;;;;;;;;;;;5027787;28;20439;-75
2022/08/15 01:56:37;;;;;;;;;;;;;;;;;;5027910;28;20115;-70
2022/08/15 01:59:05;;;;;;;;;;;;;;;;;;5029396;28;19951;-69
2022/08/15 02:01:34;;;;;;;;;;;;;;;;;;5028388;28;19948;-71
2022/08/15 02:04:02;;;;;;;;;;;;;;;;;;5025530;28;20028;-76
2022/08/15 02:06:30;;;;;;;;;;;;;;;;;;5026144;28;19925;-74
2022/08/15 02:09:04;;;;;;;;;;;;;;;;;;5027250;28;19956;-74
2022/08/15 02:11:45;;;;;;;;;;;;;;;;;;5030105;28;19964;-73
2022/08/15 02:14:27;;;;;;;;;;;;;;;;;;5029431;28;19975;-72
2022/08/15 02:17:03;;;;;;;;;;;;;;;;;;5031200;28;19921;-75
2022/08/15 02:19:32;;;;;;;;;;;;;;;;;;5031930;28;19925;-75
2022/08/15 02:21:58;;;;;;;;;;;;;;;;;;5048305;28;20369;-75
2022/08/15 02:24:25;;;;;;;;;;;;;;;;;;5048886;28;19975;-75
2022/08/15 02:26:52;;;;;;;;;;;;;;;;;;5029028;28;19951;-74
2022/08/15 02:29:18;;;;;;;;;;;;;;;;;;5019107;28;20542;-74
2022/08/15 02:31:45;;;;;;;;;;;;;;;;;;5029001;28;19964;-75
2022/08/15 02:34:11;;;;;;;;;;;;;;;;;;5027198;28;20016;-76
2022/08/15 02:36:42;;;;;;;;;;;;;;;;;;5023007;28;19928;-72
2022/08/15 02:39:18;;;;;;;;;;;;;;;;;;5032105;28;19928;-72
2022/08/15 02:41:50;;;;;;;;;;;;;;;;;;5029737;28;19977;-72
2022/08/15 02:44:20;;;;;;;;;;;;;;;;;;5033434;28;19921;-72
2022/08/15 02:46:56;;;;;;;;;;;;;;;;;;5030562;28;20379;-73
2022/08/15 02:49:27;;;;;;;;;;;;;;;;;;5031348;28;19928;-72
2022/08/15 02:52:10;;;;;;;;;;;;;;;;;;5028422;28;19921;-72
2022/08/15 02:54:45;;;;;;;;;;;;;;;;;;5028943;28;19921;-72
2022/08/15 02:57:28;;;;;;;;;;;;;;;;;;5031645;28;20017;-72
2022/08/15 02:59:55;;;;;;;;;;;;;;;;;;5029292;28;19921;-74
2022/08/15 03:02:26;;;;;;;;;;;;;;;;;;5015404;28;20562;-74
2022/08/15 03:04:56;;;;;;;;;;;;;;;;;;5029577;28;20282;-74
2022/08/15 03:07:22;;;;;;;;;;;;;;;;;;5024161;28;19928;-74
2022/08/15 03:09:49;;;;;;;;;;;;;;;;;;5019086;28;20016;-74
2022/08/15 03:12:23;;;;;;;;;;;;;;;;;;5023433;28;19943;-74
2022/08/15 03:14:58;;;;;;;;;;;;;;;;;;5026620;28;19976;-74
2022/08/15 03:17:26;;;;;;;;;;;;;;;;;;5029150;28;19964;-73
2022/08/15 03:19:54;;;;;;;;;;;;;;;;;;5028588;28;19932;-74
2022/08/15 03:22:21;;;;;;;;;;;;;;;;;;5022004;28;19941;-74
2022/08/15 03:25:08;;;;;;;;;;;;;;;;;;5014929;28;20397;-75
2022/08/15 03:27:34;;;;;;;;;;;;;;;;;;5047324;28;19991;-74
2022/08/15 03:30:01;;;;;;;;;;;;;;;;;;5028848;28;19933;-75
2022/08/15 03:32:30;;;;;;;;;;;;;;;;;;5045829;28;19964;-71
2022/08/15 03:35:00;;;;;;;;;;;;;;;;;;5019479;28;19921;-71
2022/08/15 03:37:27;;;;;;;;;;;;;;;;;;5027406;28;20015;-71
2022/08/15 03:39:53;;;;;;;;;;;;;;;;;;5031320;28;19975;-70
2022/08/15 03:42:20;;;;;;;;;;;;;;;;;;5022825;28;20019;-70
2022/08/15 03:44:48;;;;;;;;;;;;;;;;;;5045293;28;19929;-72
2022/08/15 03:47:15;;;;;;;;;;;;;;;;;;5014456;28;19921;-73
2022/08/15 03:49:42;;;;;;;;;;;;;;;;;;5027293;28;19925;-73
2022/08/15 03:52:29;;;;;;;;;;;;;;;;;;5030870;28;19921;-74
2022/08/15 03:55:00;;;;;;;;;;;;;;;;;;5027883;28;19960;-75
2022/08/15 03:57:26;;;;;;;;;;;;;;;;;;5022453;28;19921;-73
2022/08/15 03:59:52;;;;;;;;;;;;;;;;;;5011361;28;19968;-73
2022/08/15 04:02:19;;;;;;;;;;;;;;;;;;5030995;28;20379;-73
2022/08/15 04:04:55;;;;;;;;;;;;;;;;;;5031220;28;20291;-74
2022/08/15 04:07:24;;;;;;;;;;;;;;;;;;5022507;28;20012;-74
2022/08/15 04:09:51;;;;;;;;;;;;;;;;;;5044903;28;19983;-74
2022/08/15 04:12:18;;;;;;;;;;;;;;;;;;5023645;28;19962;-73
2022/08/15 04:14:51;;;;;;;;;;;;;;;;;;5027142;28;19929;-74
2022/08/15 04:17:18;;;;;;;;;;;;;;;;;;5030524;28;20020;-72
2022/08/15 04:19:48;;;;;;;;;;;;;;;;;;5029797;28;19921;-71
2022/08/15 04:22:22;;;;;;;;;;;;;;;;;;5045883;28;20383;-71
2022/08/15 04:24:53;;;;;;;;;;;;;;;;;;5030215;28;20299;-72
2022/08/15 04:27:20;;;;;;;;;;;;;;;;;;5046474;28;19959;-73
2022/08/15 04:29:46;;;;;;;;;;;;;;;;;;5043798;28;19921;-74
2022/08/15 04:32:13;;;;;;;;;;;;;;;;;;5026274;28;19966;-73
2022/08/15 04:34:41;;;;;;;;;;;;;;;;;;5024127;28;19921;-74
2022/08/15 04:37:14;;;;;;;;;;;;;;;;;;5041497;28;19928;-75
2022/08/15 04:39:44;;;;;;;;;;;;;;;;;;5028158;28;19927;-74
2022/08/15 04:42:11;;;;;;;;;;;;;;;;;;5014026;28;20390;-74
2022/08/15 04:44:48;;;;;;;;;;;;;;;;;;5028774;28;19929;-74
2022/08/15 04:47:14;;;;;;;;;;;;;;;;;;5025760;28;20190;-71
2022/08/15 04:49:40;;;;;;;;;;;;;;;;;;5029059;28;19967;-74
2022/08/15 04:52:08;;;;;;;;;;;;;;;;;;5028796;28;19928;-71
2022/08/15 04:54:34;;;;;;;;;;;;;;;;;;5026131;28;19967;-72
2022/08/15 04:57:15;;;;;;;;;;;;;;;;;;5044922;28;20020;-70
2022/08/15 04:59:43;;;;;;;;;;;;;;;;;;5011907;28;19925;-71
2022/08/15 05:02:29;;;;;;;;;;;;;;;;;;5026326;28;20024;-71
2022/08/15 05:05:16;;;;;;;;;;;;;;;;;;5028343;28;19921;-71
2022/08/15 05:07:43;;;;;;;;;;;;;;;;;;5029309;28;19920;-70
2022/08/15 05:10:25;;;;;;;;;;;;;;;;;;5021290;28;19921;-71
2022/08/15 05:13:00;;;;;;;;;;;;;;;;;;5045598;28;19925;-78
2022/08/15 05:15:26;;;;;;;;;;;;;;;;;;5045716;28;19925;-76
2022/08/15 05:17:57;;;;;;;;;;;;;;;;;;5009232;28;20009;-76
2022/08/15 05:20:25;;;;;;;;;;;;;;;;;;5021428;28;19921;-76
2022/08/15 05:22:53;;;;;;;;;;;;;;;;;;5021586;28;19963;-75
2022/08/15 05:25:20;;;;;;;;;;;;;;;;;;5024810;28;19921;-75
2022/08/15 05:27:47;;;;;;;;;;;;;;;;;;5045562;28;19979;-74
2022/08/15 05:30:14;;;;;;;;;;;;;;;;;;5021415;28;19996;-75
2022/08/15 05:32:43;;;;;;;;;;;;;;;;;;5021194;28;19922;-73
2022/08/15 05:35:10;;;;;;;;;;;;;;;;;;5005044;28;19925;-74
2022/08/15 05:37:36;;;;;;;;;;;;;;;;;;5016768;28;19963;-73
2022/08/15 05:40:08;;;;;;;;;;;;;;;;;;5028942;28;19925;-74
2022/08/15 05:42:35;;;;;;;;;;;;;;;;;;5025586;28;19947;-74
2022/08/15 05:45:03;;;;;;;;;;;;;;;;;;5001955;28;20027;-73
2022/08/15 05:47:30;;;;;;;;;;;;;;;;;;5035305;28;20028;-72
2022/08/15 05:49:57;;;;;;;;;;;;;;;;;;5019111;28;19932;-72
2022/08/15 05:52:30;;;;;;;;;;;;;;;;;;5020433;28;19921;-73
2022/08/15 05:54:59;;;;;;;;;;;;;;;;;;5026576;28;20011;-73
2022/08/15 05:57:26;;;;;;;;;;;;;;;;;;5036088;28;19921;-78
2022/08/15 05:59:52;;;;;;;;;;;;;;;;;;5041908;28;20035;-77
2022/08/15 06:02:19;;;;;;;;;;;;;;;;;;5021408;28;19921;-79
2022/08/15 06:05:02;;;;;;;;;;;;;;;;;;5041914;28;19921;-79
2022/08/15 06:07:28;;;;;;;;;;;;;;;;;;5037570;28;20016;-75
2022/08/15 06:10:17;;;;;;;;;;;;;;;;;;5035926;28;19921;-75
2022/08/15 06:13:01;;;;;;;;;;;;;;;;;;5038108;28;19925;-71
2022/08/15 06:15:28;;;;;;;;;;;;;;;;;;5052664;28;19960;-76
2022/08/15 06:18:00;;;;;;;;;;;;;;;;;;5030685;28;19945;-76
2022/08/15 06:20:27;;;;;;;;;;;;;;;;;;5017701;28;20358;-71
2022/08/15 06:23:05;;;;;;;;;;;;;;;;;;5036313;28;20032;-77
2022/08/15 06:25:34;;;;;;;;;;;;;;;;;;5024135;28;19928;-73
2022/08/15 06:28:03;;;;;;;;;;;;;;;;;;5018458;28;19928;-72
2022/08/15 06:30:49;;;;;;;;;;;;;;;;;;5023990;28;19921;-70
2022/08/15 06:33:16;;;;;;;;;;;;;;;;;;5024675;28;19932;-70
2022/08/15 06:35:44;;;;;;;;;;;;;;;;;;5014353;28;20273;-70
2022/08/15 06:38:11;;;;;;;;;;;;;;;;;;5001897;28;19964;-71
2022/08/15 06:40:57;;;;;;;;;;;;;;;;;;5018552;28;20375;-70
2022/08/15 06:43:24;;;;;;;;;;;;;;;;;;5019869;28;19970;-69
2022/08/15 06:46:05;;;;;;;;;;;;;;;;;;5013985;28;19983;-67
2022/08/15 06:48:52;;;;;;;;;;;;;;;;;;5017026;28;19948;-68
2022/08/15 06:51:25;;;;;;;;;;;;;;;;;;5051925;28;19948;-68
2022/08/15 06:54:11;;;;;;;;;;;;;;;;;;5021860;28;19928;-67
2022/08/15 06:56:59;;;;;;;;;;;;;;;;;;5025439;28;19925;-67
2022/08/15 06:59:25;;;;;;;;;;;;;;;;;;5031986;28;20375;-68
2022/08/15 07:02:04;;;;;;;;;;;;;;;;;;5022243;28;19992;-68
2022/08/15 07:04:43;;;;;;;;;;;;;;;;;;5021837;28;20000;-68
2022/08/15 07:07:10;;;;;;;;;;;;;;;;;;5015053;28;19964;-68
2022/08/15 07:09:36;;;;;;;;;;;;;;;;;;5015151;28;20021;-68
2022/08/15 07:12:03;;;;;;;;;;;;;;;;;;5045304;28;19925;-68
2022/08/15 07:14:30;;;;;;;;;;;;;;;;;;5032811;28;19963;-68
2022/08/15 07:16:56;;;;;;;;;;;;;;;;;;5015712;28;20294;-69
2022/08/15 07:19:23;;;;;;;;;;;;;;;;;;5048320;28;20015;-69
2022/08/15 07:22:00;;;;;;;;;;;;;;;;;;5048269;28;19921;-69
2022/08/15 07:24:27;;;;;;;;;;;;;;;;;;5026150;28;19927;-69
2022/08/15 07:27:01;;;;;;;;;;;;;;;;;;5027649;28;19921;-68
2022/08/15 07:29:29;;;;;;;;;;;;;;;;;;5015660;28;19921;-69
2022/08/15 07:31:58;;;;;;;;;;;;;;;;;;5025366;28;19979;-69
2022/08/15 07:34:43;;;;;;;;;;;;;;;;;;5027355;28;19921;-68
2022/08/15 07:37:10;;;;;;;;;;;;;;;;;;5027113;28;20384;-68
2022/08/15 07:39:37;;;;;;;;;;;;;;;;;;4997735;28;19921;-68
2022/08/15 07:42:15;;;;;;;;;;;;;;;;;;5019490;28;19922;-70
2022/08/15 07:44:54;;;;;;;;;;;;;;;;;;5009526;28;20018;-69
2022/08/15 07:47:22;;;;;;;;;;;;;;;;;;5011377;28;19944;-69
2022/08/15 07:49:50;;;;;;;;;;;;;;;;;;5019643;28;20450;-69
2022/08/15 07:52:16;;;;;;;;;;;;;;;;;;5017648;28;19933;-70
2022/08/15 07:55:03;;;;;;;;;;;;;;;;;;5019503;28;19921;-69
2022/08/15 07:57:30;;;;;;;;;;;;;;;;;;5019059;28;20004;-69
2022/08/15 08:00:16;;;;;;;;;;;;;;;;;;5006180;28;19933;-71
2022/08/15 08:03:03;;;;;;;;;;;;;;;;;;5021468;28;20376;-73
2022/08/15 08:05:31;;;;;;;;;;;;;;;;;;5011652;28;19930;-71
2022/08/15 08:08:14;;;;;;;;;;;;;;;;;;5041380;28;19922;-69
2022/08/15 08:11:01;;;;;;;;;;;;;;;;;;5023962;28;19921;-73
2022/08/15 08:13:28;;;;;;;;;;;;;;;;;;5022766;28;19932;-72
2022/08/15 08:16:03;;;;;;;;;;;;;;;;;;5018253;28;19929;-68
2022/08/15 08:18:34;;;;;;;;;;;;;;;;;;5011968;28;19921;-80
2022/08/15 08:21:02;;;;;;;;;;;;;;;;;;5022446;28;20419;-77
2022/08/15 08:23:37;;;;;;;;;;;;;;;;;;5023540;28;19928;-80
2022/08/15 08:26:06;;;;;;;;;;;;;;;;;;5034757;28;19922;-76
2022/08/15 08:28:44;;;;;;;;;;;;;;;;;;5006269;28;19925;-78
2022/08/15 08:31:11;;;;;;;;;;;;;;;;;;5009244;28;20400;-77
2022/08/15 08:33:38;;;;;;;;;;;;;;;;;;4992082;28;19922;-77
2022/08/15 08:36:06;;;;;;;;;;;;;;;;;;5001815;28;19925;-78
2022/08/15 08:38:53;;;;;;;;;;;;;;;;;;5028513;28;20414;-72
2022/08/15 08:41:35;;;;;;;;;;;;;;;;;;5027939;28;19928;-77
2022/08/15 08:44:10;;;;;;;;;;;;;;;;;;5016936;28;20295;-76
2022/08/15 08:46:44;;;;;;;;;;;;;;;;;;5026435;28;19928;-81
2022/08/15 08:49:11;;;;;;;;;;;;;;;;;;5027414;28;19936;-73
2022/08/15 08:51:37;;;;;;;;;;;;;;;;;;5026603;28;19921;-76
2022/08/15 08:54:05;;;;;;;;;;;;;;;;;;5027048;28;20007;-76
2022/08/15 08:56:34;;;;;;;;;;;;;;;;;;5029170;28;19932;-73
2022/08/15 08:59:02;;;;;;;;;;;;;;;;;;5027404;28;20290;-75
2022/08/15 09:01:28;;;;;;;;;;;;;;;;;;5026874;28;20008;-78
2022/08/15 09:03:55;;;;;;;;;;;;;;;;;;5025715;28;20047;-76
2022/08/15 09:06:23;;;;;;;;;;;;;;;;;;5013655;28;20016;-72
2022/08/15 09:08:52;;;;;;;;;;;;;;;;;;5028868;28;19921;-72
2022/08/15 09:11:19;;;;;;;;;;;;;;;;;;5026740;28;19928;-72
2022/08/15 09:13:49;;;;;;;;;;;;;;;;;;5019257;28;19929;-72
2022/08/15 09:16:15;;;;;;;;;;;;;;;;;;5020502;28;20322;-73
2022/08/15 09:18:42;;;;;;;;;;;;;;;;;;5026499;28;19921;-73
2022/08/15 09:21:14;;;;;;;;;;;;;;;;;;5026825;28;19921;-73
2022/08/15 09:23:40;;;;;;;;;;;;;;;;;;5029852;28;19968;-73
2022/08/15 09:26:07;;;;;;;;;;;;;;;;;;5023994;28;20751;-73
2022/08/15 09:28:39;;;;;;;;;;;;;;;;;;5025800;28;19929;-73
2022/08/15 09:31:05;;;;;;;;;;;;;;;;;;5026539;28;19921;-73
2022/08/15 09:33:32;;;;;;;;;;;;;;;;;;5018288;28;19921;-74
2022/08/15 09:35:58;;;;;;;;;;;;;;;;;;5018134;28;20009;-73
2022/08/15 09:38:26;;;;;;;;;;;;;;;;;;5030304;28;19928;-73
2022/08/15 09:40:53;;;;;;;;;;;;;;;;;;5025998;28;19921;-74
2022/08/15 09:43:37;;;;;;;;;;;;;;;;;;5027420;28;19921;-77
2022/08/15 09:46:03;;;;;;;;;;;;;;;;;;5026308;28;19962;-71
2022/08/15 09:48:33;;;;;;;;;;;;;;;;;;5027069;28;20401;-76
2022/08/15 09:51:00;;;;;;;;;;;;;;;;;;5027455;28;19925;-76
2022/08/15 09:53:28;;;;;;;;;;;;;;;;;;5030745;28;19929;-74
2022/08/15 09:56:15;;;;;;;;;;;;;;;;;;5028019;28;19921;-73
2022/08/15 09:58:43;;;;;;;;;;;;;;;;;;5026857;28;19928;-75
2022/08/15 10:01:10;;;;;;;;;;;;;;;;;;5025968;28;19920;-77
2022/08/15 10:03:36;;;;;;;;;;;;;;;;;;5030782;28;19944;-78
2022/08/15 10:06:03;;;;;;;;;;;;;;;;;;5026733;28;19922;-75
2022/08/15 10:08:49;;;;;;;;;;;;;;;;;;5026960;28;19928;-73
2022/08/15 10:11:16;;;;;;;;;;;;;;;;;;5029204;28;19957;-71
2022/08/15 10:13:44;;;;;;;;;;;;;;;;;;5026177;28;20028;-79
2022/08/15 10:16:11;;;;;;;;;;;;;;;;;;5030880;28;19921;-80
2022/08/15 10:18:41;;;;;;;;;;;;;;;;;;5028487;28;19929;-79
2022/08/15 10:21:08;;;;;;;;;;;;;;;;;;5026479;28;19968;-80
2022/08/15 10:23:36;;;;;;;;;;;;;;;;;;5018367;28;19975;-79
2022/08/15 10:26:02;;;;;;;;;;;;;;;;;;5029127;28;20123;-78
2022/08/15 10:28:31;;;;;;;;;;;;;;;;;;5031547;28;19921;-79
2022/08/15 10:31:05;;;;;;;;;;;;;;;;;;5031508;28;19921;-79
2022/08/15 10:33:35;;;;;;;;;;;;;;;;;;5017866;28;19987;-78
2022/08/15 10:36:03;;;;;;;;;;;;;;;;;;5019722;28;20000;-80
2022/08/15 10:38:30;;;;;;;;;;;;;;;;;;5032740;28;19983;-77
2022/08/15 10:40:58;;;;;;;;;;;;;;;;;;5027845;28;20026;-78
2022/08/15 10:43:24;;;;;;;;;;;;;;;;;;5029086;28;20478;-78
2022/08/15 10:46:11;;;;;;;;;;;;;;;;;;5029457;28;19924;-78
2022/08/15 10:48:38;;;;;;;;;;;;;;;;;;5029904;28;20364;-78
2022/08/15 10:51:10;;;;;;;;;;;;;;;;;;5030227;28;20016;-80
2022/08/15 10:53:37;;;;;;;;;;;;;;;;;;5033972;28;20453;-82
2022/08/15 10:56:16;;;;;;;;;;;;;;;;;;5032942;28;19925;-80
2022/08/15 10:59:03;;;;;;;;;;;;;;;;;;5029746;28;19955;-79
2022/08/15 11:01:31;;;;;;;;;;;;;;;;;;5031198;28;20299;-80
2022/08/15 11:03:58;;;;;;;;;;;;;;;;;;5029755;28;19940;-79
2022/08/15 11:06:48;;;;;;;;;;;;;;;;;;5029109;28;19921;-80
2022/08/15 11:09:21;;;;;;;;;;;;;;;;;;5028914;28;19928;-78
2022/08/15 11:11:50;;;;;;;;;;;;;;;;;;5031983;28;20155;-79
2022/08/15 11:14:16;;;;;;;;;;;;;;;;;;5031959;28;19928;-79
2022/08/15 11:16:46;;;;;;;;;;;;;;;;;;5028494;28;19920;-78
2022/08/15 11:19:13;;;;;;;;;;;;;;;;;;5029671;28;19925;-78
2022/08/15 11:21:45;;;;;;;;;;;;;;;;;;5030040;28;19927;-78
2022/08/15 11:24:11;;;;;;;;;;;;;;;;;;5016369;28;19925;-78
2022/08/15 11:26:39;;;;;;;;;;;;;;;;;;5033273;28;20035;-77
2022/08/15 11:29:06;;;;;;;;;;;;;;;;;;5029202;28;19921;-78
2022/08/15 11:31:32;;;;;;;;;;;;;;;;;;5028440;28;20011;-78
2022/08/15 11:34:03;;;;;;;;;;;;;;;;;;5021597;28;19959;-78
2022/08/15 11:36:49;;;;;;;;;;;;;;;;;;5019814;28;19921;-78
2022/08/15 11:39:16;;;;;;;;;;;;;;;;;;5028699;28;19960;-78
2022/08/15 11:41:47;;;;;;;;;;;;;;;;;;5028791;28;20300;-77
2022/08/15 11:44:16;;;;;;;;;;;;;;;;;;5030806;28;19928;-78
2022/08/15 11:46:42;;;;;;;;;;;;;;;;;;5028449;28;19921;-78
2022/08/15 11:49:08;;;;;;;;;;;;;;;;;;5028230;28;20011;-77
2022/08/15 11:51:36;;;;;;;;;;;;;;;;;;5028350;28;19920;-79
2022/08/15 11:54:03;;;;;;;;;;;;;;;;;;5029035;28;19961;-77
2022/08/15 11:56:29;;;;;;;;;;;;;;;;;;5032430;28;19963;-78
2022/08/15 11:59:12;;;;;;;;;;;;;;;;;;5029614;28;19921;-78
2022/08/15 12:01:38;;;;;;;;;;;;;;;;;;5028051;28;20347;-77
2022/08/15 12:04:06;;;;;;;;;;;;;;;;;;5027643;28;19968;-78
2022/08/15 12:06:52;;;;;;;;;;;;;;;;;;5030467;28;19928;-77
2022/08/15 12:09:21;;;;;;;;;;;;;;;;;;5027672;28;19948;-77
2022/08/15 12:12:07;;;;;;;;;;;;;;;;;;5028070;28;19933;-76
2022/08/15 12:14:37;;;;;;;;;;;;;;;;;;5031915;28;19921;-76
2022/08/15 12:17:04;;;;;;;;;;;;;;;;;;5028385;28;19948;-78
2022/08/15 12:19:30;;;;;;;;;;;;;;;;;;5018962;28;19926;-78
2022/08/15 12:21:58;;;;;;;;;;;;;;;;;;5014600;28;19925;-77
2022/08/15 12:24:44;;;;;;;;;;;;;;;;;;5006300;28;20343;-79
2022/08/15 12:27:13;;;;;;;;;;;;;;;;;;5027260;28;20386;-79
2022/08/15 12:29:42;;;;;;;;;;;;;;;;;;5029364;28;19974;-78
2022/08/15 12:32:09;;;;;;;;;;;;;;;;;;5023126;28;20356;-77
2022/08/15 12:34:55;;;;;;;;;;;;;;;;;;5018368;28;19933;-78
2022/08/15 12:37:25;;;;;;;;;;;;;;;;;;5020524;28;20411;-77
2022/08/15 12:40:07;;;;;;;;;;;;;;;;;;5025193;28;20449;-78
2022/08/15 12:42:53;;;;;;;;;;;;;;;;;;5024581;28;19921;-77
2022/08/15 12:45:25;;;;;;;;;;;;;;;;;;5027544;28;19921;-78
2022/08/15 12:47:51;;;;;;;;;;;;;;;;;;5028541;28;19975;-77
2022/08/15 12:50:31;;;;;;;;;;;;;;;;;;5027929;28;19949;-77
2022/08/15 12:52:58;;;;;;;;;;;;;;;;;;5026055;28;19925;-77
2022/08/15 12:55:25;;;;;;;;;;;;;;;;;;5026736;28;19975;-78
2022/08/15 12:57:51;;;;;;;;;;;;;;;;;;5018991;28;20502;-77
2022/08/15 13:00:19;;;;;;;;;;;;;;;;;;5026625;28;19929;-77
2022/08/15 13:03:01;;;;;;;;;;;;;;;;;;5026827;28;20368;-78
2022/08/15 13:05:31;;;;;;;;;;;;;;;;;;5030897;28;20394;-77
2022/08/15 13:08:17;;;;;;;;;;;;;;;;;;5026748;28;20049;-78
2022/08/15 13:10:53;;;;;;;;;;;;;;;;;;5026033;28;19920;-78
2022/08/15 13:13:26;;;;;;;;;;;;;;;;;;5025701;28;19924;-77
2022/08/15 13:15:52;;;;;;;;;;;;;;;;;;5026115;28;20290;-77
2022/08/15 13:18:19;;;;;;;;;;;;;;;;;;5025494;28;20021;-76
2022/08/15 13:23:42;;;;;;;;;;;;;;;;;;5026871;28;19979;-79
2022/08/15 13:26:29;;;;;;;;;;;;;;;;;;5029166;28;19925;-77
2022/08/15 13:28:59;;;;;;;;;;;;;;;;;;5025137;28;19932;-77
2022/08/15 13:31:26;;;;;;;;;;;;;;;;;;5024866;28;19921;-77
2022/08/15 13:33:53;;;;;;;;;;;;;;;;;;5015770;28;19921;-77
2022/08/15 13:36:21;;;;;;;;;;;;;;;;;;5016590;28;19925;-76
2022/08/15 13:38:54;;;;;;;;;;;;;;;;;;5027333;28;19933;-76
2022/08/15 13:41:21;;;;;;;;;;;;;;;;;;5028966;28;19927;-77
2022/08/15 13:43:48;;;;;;;;;;;;;;;;;;5025284;28;20471;-77
2022/08/15 13:46:25;;;;;;;;;;;;;;;;;;5025303;28;20405;-78
2022/08/15 13:48:58;;;;;;;;;;;;;;;;;;5025892;28;20023;-77
2022/08/15 13:51:30;;;;;;;;;;;;;;;;;;5025492;28;20004;-77
2022/08/15 13:54:18;;;;;;;;;;;;;;;;;;5025027;28;19921;-76
2022/08/15 13:56:56;;;;;;;;;;;;;;;;;;5027345;28;19925;-76
2022/08/15 13:59:23;;;;;;;;;;;;;;;;;;5028807;28;19921;-76
2022/08/15 14:01:49;;;;;;;;;;;;;;;;;;5025136;28;19928;-75
2022/08/15 14:04:16;;;;;;;;;;;;;;;;;;5029208;28;19992;-76
2022/08/15 14:06:45;;;;;;;;;;;;;;;;;;5029106;28;19928;-76
2022/08/15 14:09:20;;;;;;;;;;;;;;;;;;5029130;28;20460;-77
2022/08/15 14:12:07;;;;;;;;;;;;;;;;;;5029916;28;19972;-76
2022/08/15 14:14:34;;;;;;;;;;;;;;;;;;5029036;28;19944;-76
2022/08/15 14:17:02;;;;;;;;;;;;;;;;;;5021952;28;19921;-75
2022/08/15 14:19:29;;;;;;;;;;;;;;;;;;5024210;28;20346;-76
2022/08/15 14:22:16;;;;;;;;;;;;;;;;;;5029024;28;19925;-77
2022/08/15 14:24:43;;;;;;;;;;;;;;;;;;5028919;28;19925;-76
2022/08/15 14:27:19;;;;;;;;;;;;;;;;;;5028991;28;19921;-76
2022/08/15 14:30:05;;;;;;;;;;;;;;;;;;5028986;28;20024;-76
2022/08/15 14:32:32;;;;;;;;;;;;;;;;;;5021405;28;20024;-77
2022/08/15 14:35:18;;;;;;;;;;;;;;;;;;5023113;28;19926;-76
2022/08/15 14:37:49;;;;;;;;;;;;;;;;;;5027253;28;20040;-77
2022/08/15 14:40:17;;;;;;;;;;;;;;;;;;5029694;28;19921;-77
2022/08/15 14:42:46;;;;;;;;;;;;;;;;;;5028398;28;19953;-78
2022/08/15 14:45:12;;;;;;;;;;;;;;;;;;5028420;28;19982;-77
2022/08/15 14:47:45;;;;;;;;;;;;;;;;;;5029883;28;19928;-77
2022/08/15 14:50:11;;;;;;;;;;;;;;;;;;5029956;28;20032;-77
2022/08/15 14:52:58;;;;;;;;;;;;;;;;;;5028848;28;19929;-78
2022/08/15 14:55:25;;;;;;;;;;;;;;;;;;5028629;28;19924;-76
2022/08/15 14:57:52;;;;;;;;;;;;;;;;;;5028464;28;19921;-77
2022/08/15 15:00:21;;;;;;;;;;;;;;;;;;5033545;28;19925;-76
2022/08/15 15:02:50;;;;;;;;;;;;;;;;;;5032339;28;19928;-77
2022/08/15 15:05:22;;;;;;;;;;;;;;;;;;5014154;28;19932;-77
2022/08/15 15:08:09;;;;;;;;;;;;;;;;;;5014701;28;20402;-76
2022/08/15 15:10:46;;;;;;;;;;;;;;;;;;5012973;28;19927;-77
2022/08/15 15:13:14;;;;;;;;;;;;;;;;;;5018968;28;20306;-76
2022/08/15 15:15:40;;;;;;;;;;;;;;;;;;5028025;28;20000;-73
2022/08/15 15:18:08;;;;;;;;;;;;;;;;;;5015285;28;20434;-72
2022/08/15 15:20:57;;;;;;;;;;;;;;;;;;5028176;28;20310;-72
2022/08/15 15:23:24;;;;;;;;;;;;;;;;;;5031877;28;20379;-72
2022/08/15 15:25:50;;;;;;;;;;;;;;;;;;5019574;28;19972;-73
2022/08/15 15:28:16;;;;;;;;;;;;;;;;;;5020089;28;20024;-73
2022/08/15 15:31:00;;;;;;;;;;;;;;;;;;5026402;28;19930;-73
2022/08/15 15:33:27;;;;;;;;;;;;;;;;;;5008828;28;20028;-72
2022/08/15 15:35:53;;;;;;;;;;;;;;;;;;5021097;28;20322;-72
2022/08/15 15:38:22;;;;;;;;;;;;;;;;;;5026032;28;19921;-73
2022/08/15 15:41:03;;;;;;;;;;;;;;;;;;5027352;28;19921;-73
2022/08/15 15:43:29;;;;;;;;;;;;;;;;;;5026581;28;19921;-73
2022/08/15 15:45:55;;;;;;;;;;;;;;;;;;5027563;28;20441;-76
2022/08/15 15:48:22;;;;;;;;;;;;;;;;;;5027705;28;20347;-73
2022/08/15 15:50:56;;;;;;;;;;;;;;;;;;5028685;28;20362;-75
2022/08/15 15:53:22;;;;;;;;;;;;;;;;;;5031128;28;19927;-72
2022/08/15 15:55:49;;;;;;;;;;;;;;;;;;5026874;28;20367;-68
2022/08/15 15:58:15;;;;;;;;;;;;;;;;;;5030055;28;19968;-70
2022/08/15 16:01:01;;;;;;;;;;;;;;;;;;5027130;28;19948;-76
2022/08/15 16:03:48;;;;;;;;;;;;;;;;;;5027003;28;19925;-62
2022/08/15 16:06:26;;;;;;;;;;;;;;;;;;5027533;28;19921;-71
2022/08/15 16:09:12;;;;;;;;;;;;;;;;;;5027523;28;19922;-73
2022/08/15 16:11:40;;;;;;;;;;;;;;;;;;5032784;28;19925;-77
2022/08/15 16:14:21;;;;;;;;;;;;;;;;;;5024880;28;20291;-69
2022/08/15 16:16:47;;;;;;;;;;;;;;;;;;5025718;28;20015;-66
2022/08/15 16:19:14;;;;;;;;;;;;;;;;;;5027653;28;20295;-67
2022/08/15 16:21:40;;;;;;;;;;;;;;;;;;5027565;28;19921;-68
2022/08/15 16:24:24;;;;;;;;;;;;;;;;;;5027732;28;20334;-66
2022/08/15 16:26:50;;;;;;;;;;;;;;;;;;5029815;28;19948;-67
2022/08/15 16:29:19;;;;;;;;;;;;;;;;;;5030046;28;19928;-68
2022/08/15 16:31:45;;;;;;;;;;;;;;;;;;5027510;28;19921;-68
2022/08/15 16:34:12;;;;;;;;;;;;;;;;;;5019727;28;20449;-68
2022/08/15 16:36:40;;;;;;;;;;;;;;;;;;5017763;28;19921;-67
2022/08/15 16:39:06;;;;;;;;;;;;;;;;;;5028312;28;19935;-68
2022/08/15 16:41:52;;;;;;;;;;;;;;;;;;5027481;28;20407;-68
2022/08/15 16:44:18;;;;;;;;;;;;;;;;;;5029634;28;19921;-68
2022/08/15 16:46:53;;;;;;;;;;;;;;;;;;5027114;28;19968;-71
2022/08/15 16:49:22;;;;;;;;;;;;;;;;;;5020966;28;20481;-73
2022/08/15 16:51:51;;;;;;;;;;;;;;;;;;5027599;28;19994;-65
2022/08/15 16:54:18;;;;;;;;;;;;;;;;;;5023696;28;19949;-69
2022/08/15 16:56:59;;;;;;;;;;;;;;;;;;5009364;28;20011;-73
2022/08/15 16:59:25;;;;;;;;;;;;;;;;;;5013187;28;19929;-76
2022/08/15 17:01:54;;;;;;;;;;;;;;;;;;5024641;28;20385;-70
2022/08/15 17:04:24;;;;;;;;;;;;;;;;;;5024972;28;19925;-66
2022/08/15 17:06:51;;;;;;;;;;;;;;;;;;5021484;28;20016;-71
2022/08/15 17:09:17;;;;;;;;;;;;;;;;;;5027425;28;20008;-72
2022/08/15 17:11:47;;;;;;;;;;;;;;;;;;5030373;28;19921;-67
2022/08/15 17:14:20;;;;;;;;;;;;;;;;;;5025406;28;20391;-71
2022/08/15 17:16:58;;;;;;;;;;;;;;;;;;5025705;28;19927;-69
2022/08/15 17:19:24;;;;;;;;;;;;;;;;;;5026351;28;19929;-66
2022/08/15 17:21:51;;;;;;;;;;;;;;;;;;5027363;28;20004;-79
2022/08/15 17:24:19;;;;;;;;;;;;;;;;;;5013298;28;19926;-69